Time;durP1;ratioP1;P1;durP2;ratioP2;P2;SDS_P1;SDS_P2;PMS_P1;PMS_P2;Temp;Humidity;BMP_temperature;BMP_pressure;BME280_temperature;BME280_humidity;BME280_pressure;Samples;Min_cycle;Max_cycle;Signal;HPM_P1;HPM_P2
2022/10/01 00:00:17;;;;;;;3.25;1.52;;;;;;;;;;5032152;28;20033;-73
2022/10/01 00:02:43;;;;;;;2.13;1.52;;;;;;;;;;5031465;28;20022;-72
2022/10/01 00:05:10;;;;;;;4.18;1.60;;;;;;;;;;5029753;28;20100;-72
2022/10/01 00:07:37;;;;;;;2.00;1.30;;;;;;;;;;5031566;28;20424;-72
2022/10/01 00:10:04;;;;;;;3.67;1.67;;;;;;;;;;5034010;28;20381;-72
2022/10/01 00:12:30;;;;;;;2.00;1.55;;;;;;;;;;5034952;28;20037;-72
2022/10/01 00:14:56;;;;;;;5.00;1.70;;;;;;;;;;5034888;28;20511;-72
2022/10/01 00:17:23;;;;;;;3.10;1.70;;;;;;;;;;5034897;28;20025;-72
2022/10/01 00:19:49;;;;;;;1.83;1.30;;;;;;;;;;5034498;28;20035;-72
2022/10/01 00:22:17;;;;;;;1.98;1.40;;;;;;;;;;5034809;28;20031;-72
2022/10/01 00:24:46;;;;;;;2.72;1.50;;;;;;;;;;5034868;28;20498;-72
2022/10/01 00:27:12;;;;;;;2.25;1.67;;;;;;;;;;5035080;28;20026;-72
2022/10/01 00:29:39;;;;;;;3.58;1.60;;;;;;;;;;5034743;28;20494;-73
2022/10/01 00:32:05;;;;;;;2.38;1.25;;;;;;;;;;5034773;28;20028;-72
2022/10/01 00:34:32;;;;;;;3.58;1.58;;;;;;;;;;5034179;28;20394;-73
2022/10/01 00:36:58;;;;;;;2.00;1.30;;;;;;;;;;5035093;28;20033;-72
2022/10/01 00:39:24;;;;;;;2.97;1.60;;;;;;;;;;5034393;28;20410;-72
2022/10/01 00:41:51;;;;;;;1.60;1.27;;;;;;;;;;5034510;28;20021;-73
2022/10/01 00:44:31;;;;;;;2.83;1.50;;;;;;;;;;5034350;28;20021;-72
2022/10/01 00:47:01;;;;;;;4.07;1.40;;;;;;;;;;5034315;28;20029;-72
2022/10/01 00:49:28;;;;;;;3.58;1.45;;;;;;;;;;5034373;28;20029;-73
2022/10/01 00:51:59;;;;;;;3.42;1.80;;;;;;;;;;5034215;28;20425;-72
2022/10/01 00:54:30;;;;;;;3.03;1.67;;;;;;;;;;5034246;28;20083;-72
2022/10/01 00:56:57;;;;;;;4.53;1.80;;;;;;;;;;5034501;28;20018;-72
2022/10/01 00:59:24;;;;;;;5.22;1.75;;;;;;;;;;5032893;28;20037;-72
2022/10/01 01:01:50;;;;;;;3.35;1.67;;;;;;;;;;5034297;28;20041;-72
2022/10/01 01:04:16;;;;;;;1.63;1.40;;;;;;;;;;5033612;28;20029;-72
2022/10/01 01:06:57;;;;;;;2.92;1.58;;;;;;;;;;5034001;28;20029;-72
2022/10/01 01:09:52;;;;;;;2.57;1.77;;;;;;;;;;5034375;28;20034;-72
2022/10/01 01:12:19;;;;;;;6.72;2.00;;;;;;;;;;5029112;28;20468;-72
2022/10/01 01:14:53;;;;;;;1.98;1.35;;;;;;;;;;5049348;28;20482;-72
2022/10/01 01:17:24;;;;;;;3.35;1.73;;;;;;;;;;5033622;28;20032;-72
2022/10/01 01:19:51;;;;;;;5.78;1.85;;;;;;;;;;5033305;28;20028;-72
2022/10/01 01:22:20;;;;;;;3.05;1.65;;;;;;;;;;5033436;28;20025;-72
2022/10/01 01:24:49;;;;;;;7.10;1.65;;;;;;;;;;5033688;28;20033;-72
2022/10/01 01:27:18;;;;;;;2.72;1.65;;;;;;;;;;5033648;28;20482;-72
2022/10/01 01:29:44;;;;;;;2.53;1.67;;;;;;;;;;5033755;28;20032;-72
2022/10/01 01:32:14;;;;;;;2.05;1.60;;;;;;;;;;5033162;28;20024;-72
2022/10/01 01:34:42;;;;;;;2.15;1.83;;;;;;;;;;5033583;28;20025;-72
2022/10/01 01:37:11;;;;;;;6.82;1.67;;;;;;;;;;5033465;28;20025;-72
2022/10/01 01:39:39;;;;;;;2.42;1.60;;;;;;;;;;5033282;28;20040;-72
2022/10/01 01:42:07;;;;;;;2.80;1.70;;;;;;;;;;5033389;28;20029;-72
2022/10/01 01:44:37;;;;;;;3.90;1.65;;;;;;;;;;5033158;28;20021;-72
2022/10/01 01:47:06;;;;;;;2.75;1.52;;;;;;;;;;5033000;28;20036;-72
2022/10/01 01:49:33;;;;;;;2.85;1.58;;;;;;;;;;5033150;28;20025;-72
2022/10/01 01:52:04;;;;;;;5.82;1.48;;;;;;;;;;5033010;28;20033;-72
2022/10/01 01:54:31;;;;;;;2.95;1.92;;;;;;;;;;5032869;28;20021;-72
2022/10/01 01:56:58;;;;;;;1.85;1.35;;;;;;;;;;5033165;28;20037;-72
2022/10/01 01:59:25;;;;;;;3.95;1.60;;;;;;;;;;5032861;28;20460;-72
2022/10/01 02:01:51;;;;;;;3.35;1.58;;;;;;;;;;5032593;28;20393;-72
2022/10/01 02:04:22;;;;;;;4.63;1.92;;;;;;;;;;5031652;28;20045;-72
2022/10/01 02:07:06;;;;;;;7.00;1.67;;;;;;;;;;5032781;28;20025;-72
2022/10/01 02:09:43;;;;;;;2.67;1.55;;;;;;;;;;5033092;28;20025;-72
2022/10/01 02:12:12;;;;;;;2.15;1.45;;;;;;;;;;5032757;28;20498;-72
2022/10/01 02:14:49;;;;;;;4.90;1.75;;;;;;;;;;5032858;28;20048;-72
2022/10/01 02:17:34;;;;;;;2.70;1.40;;;;;;;;;;5032633;28;20029;-72
2022/10/01 02:20:09;;;;;;;7.82;1.45;;;;;;;;;;5032715;28;20052;-72
2022/10/01 02:22:46;;;;;;;3.47;1.50;;;;;;;;;;5048325;28;20531;-72
2022/10/01 02:25:14;;;;;;;3.65;1.50;;;;;;;;;;5032459;28;20036;-72
2022/10/01 02:27:43;;;;;;;2.50;1.67;;;;;;;;;;5032949;28;20037;-72
2022/10/01 02:30:10;;;;;;;2.33;1.48;;;;;;;;;;5032451;28;20021;-72
2022/10/01 02:32:41;;;;;;;5.00;1.90;;;;;;;;;;5032457;28;20030;-72
2022/10/01 02:35:09;;;;;;;3.27;1.60;;;;;;;;;;5032278;28;20021;-72
2022/10/01 02:37:36;;;;;;;3.28;1.60;;;;;;;;;;5032565;28;20279;-72
2022/10/01 02:40:05;;;;;;;3.25;1.60;;;;;;;;;;5032163;28;20041;-71
2022/10/01 02:42:32;;;;;;;2.13;1.60;;;;;;;;;;5032108;28;20029;-72
2022/10/01 02:45:02;;;;;;;2.85;1.65;;;;;;;;;;5031514;28;20043;-73
2022/10/01 02:47:33;;;;;;;1.77;1.55;;;;;;;;;;5031176;28;20033;-72
2022/10/01 02:50:00;;;;;;;4.97;1.60;;;;;;;;;;5032468;28;20029;-72
2022/10/01 02:52:30;;;;;;;4.30;1.70;;;;;;;;;;5032026;28;20506;-73
2022/10/01 02:54:57;;;;;;;3.05;1.75;;;;;;;;;;5032271;28;20508;-72
2022/10/01 02:57:25;;;;;;;5.88;1.40;;;;;;;;;;5032322;28;20022;-71
2022/10/01 02:59:53;;;;;;;2.10;1.50;;;;;;;;;;5031628;28;20096;-72
2022/10/01 03:02:21;;;;;;;3.30;1.70;;;;;;;;;;5032385;28;20041;-72
2022/10/01 03:04:47;;;;;;;3.08;1.70;;;;;;;;;;5031788;28;20021;-72
2022/10/01 03:07:14;;;;;;;2.58;1.33;;;;;;;;;;5031969;28;20026;-72
2022/10/01 03:09:41;;;;;;;1.83;1.60;;;;;;;;;;5031945;28;20032;-72
2022/10/01 03:12:09;;;;;;;3.50;1.38;;;;;;;;;;5031986;28;20043;-72
2022/10/01 03:14:38;;;;;;;5.05;1.90;;;;;;;;;;5031402;28;20029;-73
2022/10/01 03:17:05;;;;;;;3.53;1.70;;;;;;;;;;5031890;28;20033;-72
2022/10/01 03:19:32;;;;;;;4.88;1.70;;;;;;;;;;5031778;28;20041;-72
2022/10/01 03:21:58;;;;;;;4.53;1.70;;;;;;;;;;5031875;28;20031;-72
2022/10/01 03:24:24;;;;;;;4.07;1.58;;;;;;;;;;5031660;28;20040;-72
2022/10/01 03:26:51;;;;;;;2.78;1.60;;;;;;;;;;5031820;28;20029;-72
2022/10/01 03:29:17;;;;;;;3.95;1.45;;;;;;;;;;5031544;28;20401;-72
2022/10/01 03:31:44;;;;;;;5.53;1.60;;;;;;;;;;5031749;28;20026;-72
2022/10/01 03:34:12;;;;;;;3.75;1.75;;;;;;;;;;5031795;28;20030;-72
2022/10/01 03:36:38;;;;;;;2.55;1.80;;;;;;;;;;5031713;28;20040;-72
2022/10/01 03:39:05;;;;;;;2.42;1.60;;;;;;;;;;5031612;28;20048;-72
2022/10/01 03:41:31;;;;;;;2.47;1.73;;;;;;;;;;5031641;28;20017;-72
2022/10/01 03:43:57;;;;;;;4.55;1.60;;;;;;;;;;5032025;28;20025;-72
2022/10/01 03:46:25;;;;;;;5.15;1.65;;;;;;;;;;5035929;28;20029;-72
2022/10/01 03:48:51;;;;;;;4.00;1.67;;;;;;;;;;5035568;28;20074;-72
2022/10/01 03:51:20;;;;;;;3.10;1.45;;;;;;;;;;5035308;28;20021;-72
2022/10/01 03:53:47;;;;;;;4.28;1.58;;;;;;;;;;5035283;28;20532;-72
2022/10/01 03:56:14;;;;;;;1.83;1.40;;;;;;;;;;5035716;28;20021;-72
2022/10/01 03:58:40;;;;;;;2.17;1.58;;;;;;;;;;5035298;28;20477;-72
2022/10/01 04:01:06;;;;;;;2.45;1.45;;;;;;;;;;5035251;28;20022;-73
2022/10/01 04:03:33;;;;;;;3.85;1.50;;;;;;;;;;5035288;28;20022;-72
2022/10/01 04:05:59;;;;;;;3.85;1.48;;;;;;;;;;5034935;28;20018;-72
2022/10/01 04:08:25;;;;;;;2.72;1.50;;;;;;;;;;5035100;28;20051;-72
2022/10/01 04:10:52;;;;;;;1.98;1.30;;;;;;;;;;5035009;28;20018;-72
2022/10/01 04:13:18;;;;;;;4.88;1.25;;;;;;;;;;5034813;28;20049;-72
2022/10/01 04:15:44;;;;;;;2.83;1.50;;;;;;;;;;5035009;28;20025;-72
2022/10/01 04:18:11;;;;;;;4.13;1.70;;;;;;;;;;5035094;28;20051;-72
2022/10/01 04:20:38;;;;;;;3.47;1.80;;;;;;;;;;5035040;28;20031;-72
2022/10/01 04:23:04;;;;;;;3.00;1.67;;;;;;;;;;5034736;28;20033;-72
2022/10/01 04:25:31;;;;;;;5.60;1.88;;;;;;;;;;5034381;28;20405;-72
2022/10/01 04:27:59;;;;;;;1.65;1.48;;;;;;;;;;5034816;28;20029;-72
2022/10/01 04:30:30;;;;;;;4.88;1.55;;;;;;;;;;5035040;28;20040;-71
2022/10/01 04:32:56;;;;;;;2.08;1.40;;;;;;;;;;5034740;28;20047;-72
2022/10/01 04:35:23;;;;;;;2.92;1.70;;;;;;;;;;5034625;28;20502;-72
2022/10/01 04:37:57;;;;;;;2.22;1.65;;;;;;;;;;5034374;28;20498;-72
2022/10/01 04:40:24;;;;;;;2.03;1.20;;;;;;;;;;5034168;28;20029;-72
2022/10/01 04:42:51;;;;;;;4.40;1.20;;;;;;;;;;5034599;28;20490;-70
2022/10/01 04:45:17;;;;;;;3.70;1.50;;;;;;;;;;5034065;28;20059;-71
2022/10/01 04:47:47;;;;;;;4.18;1.30;;;;;;;;;;5034319;28;20036;-73
2022/10/01 04:50:17;;;;;;;4.03;1.30;;;;;;;;;;5034431;28;20029;-71
2022/10/01 04:52:43;;;;;;;3.28;1.55;;;;;;;;;;5034133;28;20497;-72
2022/10/01 04:55:10;;;;;;;3.90;1.70;;;;;;;;;;5033591;28;20032;-72
2022/10/01 04:57:40;;;;;;;1.42;1.27;;;;;;;;;;5034507;28;20036;-72
2022/10/01 05:00:08;;;;;;;1.40;1.30;;;;;;;;;;5034090;28;20474;-72
2022/10/01 05:02:34;;;;;;;2.88;1.40;;;;;;;;;;5032834;28;20021;-72
2022/10/01 05:05:02;;;;;;;4.38;1.92;;;;;;;;;;5033863;28;20406;-72
2022/10/01 05:07:32;;;;;;;2.22;1.50;;;;;;;;;;5034012;28;20075;-72
2022/10/01 05:09:59;;;;;;;3.75;1.80;;;;;;;;;;5033546;28;20029;-72
2022/10/01 05:12:26;;;;;;;5.03;1.80;;;;;;;;;;5033831;28;20414;-72
2022/10/01 05:14:53;;;;;;;5.57;2.03;;;;;;;;;;5033798;28;20035;-72
2022/10/01 05:17:19;;;;;;;6.80;2.65;;;;;;;;;;5033783;28;20490;-72
2022/10/01 05:19:46;;;;;;;3.75;2.38;;;;;;;;;;5033671;28;20040;-72
2022/10/01 05:22:12;;;;;;;2.47;1.70;;;;;;;;;;5033775;28;20022;-72
2022/10/01 05:24:39;;;;;;;4.50;2.10;;;;;;;;;;5033170;28;20029;-72
2022/10/01 05:27:09;;;;;;;3.13;2.22;;;;;;;;;;5033737;28;20056;-72
2022/10/01 05:29:36;;;;;;;6.93;2.03;;;;;;;;;;5033853;28;20027;-72
2022/10/01 05:32:03;;;;;;;3.83;1.80;;;;;;;;;;5033628;28;20024;-72
2022/10/01 05:34:29;;;;;;;3.45;1.77;;;;;;;;;;5033350;28;20018;-72
2022/10/01 05:36:55;;;;;;;9.63;1.77;;;;;;;;;;5033463;28;20032;-71
2022/10/01 05:39:22;;;;;;;2.85;1.85;;;;;;;;;;5033065;28;20036;-72
2022/10/01 05:41:48;;;;;;;3.88;1.80;;;;;;;;;;5033197;28;20025;-72
2022/10/01 05:44:15;;;;;;;4.55;1.70;;;;;;;;;;5033090;28;20037;-72
2022/10/01 05:46:42;;;;;;;3.72;2.33;;;;;;;;;;5031989;28;20028;-72
2022/10/01 05:49:09;;;;;;;5.72;2.22;;;;;;;;;;5033206;28;20393;-72
2022/10/01 05:51:35;;;;;;;6.68;2.30;;;;;;;;;;5032074;28;20021;-72
2022/10/01 05:54:03;;;;;;;3.47;2.40;;;;;;;;;;5032684;28;20057;-72
2022/10/01 05:56:30;;;;;;;4.32;2.22;;;;;;;;;;5032927;28;20021;-72
2022/10/01 05:58:56;;;;;;;4.65;2.10;;;;;;;;;;5033014;28;20040;-72
2022/10/01 06:01:22;;;;;;;5.07;2.10;;;;;;;;;;5032882;28;20033;-72
2022/10/01 06:03:52;;;;;;;2.70;1.80;;;;;;;;;;5032712;28;20029;-72
2022/10/01 06:06:25;;;;;;;2.83;1.83;;;;;;;;;;5032636;28;20038;-72
2022/10/01 06:08:51;;;;;;;4.07;1.80;;;;;;;;;;5032674;28;20028;-72
2022/10/01 06:11:18;;;;;;;4.15;1.63;;;;;;;;;;5032552;28;20005;-72
2022/10/01 06:13:45;;;;;;;2.47;1.70;;;;;;;;;;5032967;28;20036;-72
2022/10/01 06:16:12;;;;;;;6.88;1.55;;;;;;;;;;5032682;28;20033;-72
2022/10/01 06:18:39;;;;;;;2.92;1.55;;;;;;;;;;5032511;28;20460;-72
2022/10/01 06:21:05;;;;;;;3.10;1.58;;;;;;;;;;5032594;28;20401;-73
2022/10/01 06:23:32;;;;;;;4.03;1.58;;;;;;;;;;5032521;28;20043;-72
2022/10/01 06:25:59;;;;;;;2.58;1.10;;;;;;;;;;5032246;28;20021;-72
2022/10/01 06:28:26;;;;;;;3.03;1.20;;;;;;;;;;5032493;28;20035;-72
2022/10/01 06:30:52;;;;;;;2.63;1.55;;;;;;;;;;5032545;28;20474;-72
2022/10/01 06:33:19;;;;;;;1.80;1.20;;;;;;;;;;5031879;28;20436;-72
2022/10/01 06:35:46;;;;;;;3.13;1.48;;;;;;;;;;5032321;28;20052;-72
2022/10/01 06:38:13;;;;;;;3.22;1.23;;;;;;;;;;5032246;28;20036;-72
2022/10/01 06:40:40;;;;;;;3.03;1.60;;;;;;;;;;5032235;28;20087;-72
2022/10/01 06:43:07;;;;;;;2.70;1.33;;;;;;;;;;5032179;28;20035;-72
2022/10/01 06:45:37;;;;;;;4.68;1.85;;;;;;;;;;5032237;28;20022;-72
2022/10/01 06:48:03;;;;;;;2.33;1.67;;;;;;;;;;5032437;28;20029;-72
2022/10/01 06:50:30;;;;;;;4.88;2.22;;;;;;;;;;5031429;28;20080;-72
2022/10/01 06:52:57;;;;;;;4.63;1.80;;;;;;;;;;5032106;28;20036;-72
2022/10/01 06:55:25;;;;;;;3.42;1.63;;;;;;;;;;5032327;28;20405;-72
2022/10/01 06:57:55;;;;;;;3.72;1.70;;;;;;;;;;5031993;28;20021;-72
2022/10/01 07:00:22;;;;;;;5.75;2.00;;;;;;;;;;5032557;28;20029;-72
2022/10/01 07:02:48;;;;;;;4.55;3.65;;;;;;;;;;5031974;28;20044;-72
2022/10/01 07:05:15;;;;;;;6.72;3.72;;;;;;;;;;5031588;28;20021;-72
2022/10/01 07:07:43;;;;;;;5.50;3.25;;;;;;;;;;5031876;28;20506;-72
2022/10/01 07:10:10;;;;;;;6.00;3.33;;;;;;;;;;5032203;28;20030;-72
2022/10/01 07:12:38;;;;;;;3.67;2.90;;;;;;;;;;5031788;28;20532;-73
2022/10/01 07:15:05;;;;;;;5.90;2.50;;;;;;;;;;5031826;28;20029;-72
2022/10/01 07:17:31;;;;;;;6.25;2.30;;;;;;;;;;5032189;28;20021;-72
2022/10/01 07:19:58;;;;;;;5.13;2.50;;;;;;;;;;5034220;28;20505;-73
2022/10/01 07:22:24;;;;;;;4.88;2.60;;;;;;;;;;5035950;28;20017;-73
2022/10/01 07:24:51;;;;;;;5.30;2.30;;;;;;;;;;5036021;28;20049;-72
2022/10/01 07:27:18;;;;;;;4.78;3.00;;;;;;;;;;5035574;28;20409;-72
2022/10/01 07:29:44;;;;;;;4.38;2.63;;;;;;;;;;5035797;28;20028;-72
2022/10/01 07:32:11;;;;;;;3.60;2.72;;;;;;;;;;5035841;28;20029;-72
2022/10/01 07:34:41;;;;;;;3.33;2.47;;;;;;;;;;5035257;28;20026;-73
2022/10/01 07:37:08;;;;;;;4.17;1.93;;;;;;;;;;5051257;28;20400;-72
2022/10/01 07:39:35;;;;;;;4.30;2.10;;;;;;;;;;5035627;28;20490;-72
2022/10/01 07:42:01;;;;;;;7.13;2.10;;;;;;;;;;5035707;28;20030;-72
2022/10/01 07:44:28;;;;;;;2.67;1.63;;;;;;;;;;5035334;28;20405;-72
2022/10/01 07:46:57;;;;;;;3.35;1.77;;;;;;;;;;5035444;28;20017;-72
2022/10/01 07:49:24;;;;;;;2.25;1.67;;;;;;;;;;5050513;28;20034;-72
2022/10/01 07:51:51;;;;;;;3.67;1.38;;;;;;;;;;5035320;28;20025;-73
2022/10/01 07:54:18;;;;;;;2.08;1.45;;;;;;;;;;5035378;28;20496;-72
2022/10/01 07:56:45;;;;;;;3.53;1.48;;;;;;;;;;5035158;28;20025;-72
2022/10/01 07:59:12;;;;;;;3.22;1.67;;;;;;;;;;5035140;28;20033;-73
2022/10/01 08:01:38;;;;;;;3.42;1.75;;;;;;;;;;5035420;28;20027;-73
2022/10/01 08:05:16;;;;;;;3.22;1.95;;;;;;;;;;5034967;28;20040;-72
2022/10/01 08:06:56;;;;;;;3.35;1.63;;;;;;;;;;5035037;28;20028;-72
2022/10/01 08:09:23;;;;;;;2.33;1.50;;;;;;;;;;5035274;28;20029;-72
2022/10/01 08:11:50;;;;;;;2.20;1.80;;;;;;;;;;4993664;28;1239736;-73
2022/10/01 08:14:17;;;;;;;5.18;1.95;;;;;;;;;;5035309;28;20033;-72
2022/10/01 08:16:43;;;;;;;3.30;1.90;;;;;;;;;;5034815;28;20495;-72
2022/10/01 08:19:11;;;;;;;4.35;2.20;;;;;;;;;;5034665;28;20037;-72
2022/10/01 08:21:38;;;;;;;5.40;1.70;;;;;;;;;;5035005;28;20048;-72
2022/10/01 08:24:05;;;;;;;3.63;1.88;;;;;;;;;;5034572;28;20040;-73
2022/10/01 08:26:31;;;;;;;4.22;1.95;;;;;;;;;;5034462;28;20025;-72
2022/10/01 08:28:58;;;;;;;2.53;1.85;;;;;;;;;;5034788;28;20482;-72
2022/10/01 08:31:24;;;;;;;4.85;1.90;;;;;;;;;;5034547;28;20094;-73
2022/10/01 08:33:52;;;;;;;3.88;1.67;;;;;;;;;;5034223;28;20405;-72
2022/10/01 08:36:18;;;;;;;3.72;1.55;;;;;;;;;;5049973;28;20021;-73
2022/10/01 08:38:45;;;;;;;2.63;1.77;;;;;;;;;;5034468;28;20037;-72
2022/10/01 08:41:22;;;;;;;2.90;1.58;;;;;;;;;;5034469;28;20029;-73
2022/10/01 08:43:50;;;;;;;4.60;1.80;;;;;;;;;;5034129;28;20022;-73
2022/10/01 08:46:18;;;;;;;2.33;1.55;;;;;;;;;;5033939;28;20393;-72
2022/10/01 08:48:44;;;;;;;3.42;1.40;;;;;;;;;;5034622;28;20021;-72
2022/10/01 08:51:15;;;;;;;2.88;1.63;;;;;;;;;;5034446;28;20087;-73
2022/10/01 08:53:41;;;;;;;7.88;1.50;;;;;;;;;;5034376;28;20075;-73
2022/10/01 08:56:17;;;;;;;3.88;1.80;;;;;;;;;;5034487;28;20036;-72
2022/10/01 08:58:46;;;;;;;2.65;1.63;;;;;;;;;;5034400;28;20041;-73
2022/10/01 09:01:12;;;;;;;2.92;1.73;;;;;;;;;;5033952;28;20020;-73
2022/10/01 09:03:39;;;;;;;2.63;1.70;;;;;;;;;;5034139;28;20037;-70
2022/10/01 09:06:19;;;;;;;5.68;1.83;;;;;;;;;;5033996;28;20023;-70
2022/10/01 09:08:45;;;;;;;2.88;1.77;;;;;;;;;;5034374;28;20041;-69
2022/10/01 09:11:29;;;;;;;4.93;1.73;;;;;;;;;;5033758;28;20021;-70
2022/10/01 09:14:09;;;;;;;3.47;1.75;;;;;;;;;;5033657;28;20048;-70
2022/10/01 09:16:47;;;;;;;6.40;1.60;;;;;;;;;;5033730;28;20402;-70
2022/10/01 09:19:16;;;;;;;2.40;1.92;;;;;;;;;;5033663;28;20041;-71
2022/10/01 09:21:50;;;;;;;8.20;1.67;;;;;;;;;;5033694;28;20030;-70
2022/10/01 09:24:25;;;;;;;4.72;2.00;;;;;;;;;;5034129;28;20463;-70
2022/10/01 09:26:51;;;;;;;5.72;1.88;;;;;;;;;;5033550;28;20180;-69
2022/10/01 09:29:27;;;;;;;4.15;2.17;;;;;;;;;;5033500;28;20470;-69
2022/10/01 09:31:54;;;;;;;5.40;2.75;;;;;;;;;;5033094;28;20355;-70
2022/10/01 09:34:41;;;;;;;7.22;2.95;;;;;;;;;;5049057;28;20024;-70
2022/10/01 09:37:21;;;;;;;3.22;2.50;;;;;;;;;;5033564;28;20052;-70
2022/10/01 09:40:03;;;;;;;4.43;2.57;;;;;;;;;;5048703;28;20038;-70
2022/10/01 09:42:30;;;;;;;4.60;2.47;;;;;;;;;;5032590;28;20036;-70
2022/10/01 09:44:56;;;;;;;4.93;2.55;;;;;;;;;;5032928;28;20389;-73
2022/10/01 09:47:27;;;;;;;4.95;2.33;;;;;;;;;;5033203;28;20508;-72
2022/10/01 09:49:53;;;;;;;5.63;2.10;;;;;;;;;;5033290;28;20386;-73
2022/10/01 09:52:39;;;;;;;5.32;2.60;;;;;;;;;;5033189;28;20030;-72
2022/10/01 09:55:24;;;;;;;7.55;2.42;;;;;;;;;;5033179;28;20028;-73
2022/10/01 09:57:53;;;;;;;5.50;2.40;;;;;;;;;;5033262;28;20024;-72
2022/10/01 10:00:24;;;;;;;6.78;2.30;;;;;;;;;;5031416;28;20033;-73
2022/10/01 10:02:50;;;;;;;;;;;;;;;;;;5033822;28;20013;-73
2022/10/01 10:05:17;;;;;;;7.43;3.70;;;;;;;;;;5032885;28;19905;-73
2022/10/01 10:07:50;;;;;;;7.20;4.85;;;;;;;;;;5032656;28;20031;-70
2022/10/01 10:10:18;;;;;;;13.38;7.43;;;;;;;;;;5033166;28;20025;-70
2022/10/01 10:12:45;;;;;;;4.15;2.80;;;;;;;;;;5032537;28;20087;-70
2022/10/01 10:15:20;;;;;;;5.32;3.40;;;;;;;;;;5032557;28;20063;-73
2022/10/01 10:17:49;;;;;;;4.78;2.28;;;;;;;;;;5032891;28;20083;-70
2022/10/01 10:20:37;;;;;;;7.22;2.40;;;;;;;;;;5032846;28;20040;-70
2022/10/01 10:23:07;;;;;;;12.52;2.88;;;;;;;;;;5032587;28;20044;-70
2022/10/01 10:25:33;;;;;;;3.08;2.35;;;;;;;;;;5032695;28;20022;-70
2022/10/01 10:28:01;;;;;;;6.43;3.00;;;;;;;;;;5031911;28;20040;-70
2022/10/01 10:30:27;;;;;;;6.90;2.50;;;;;;;;;;5047918;28;20030;-71
2022/10/01 10:33:01;;;;;;;7.38;2.92;;;;;;;;;;5032354;28;20405;-70
2022/10/01 10:35:28;;;;;;;9.20;2.65;;;;;;;;;;5032351;28;20028;-70
2022/10/01 10:37:59;;;;;;;4.93;2.90;;;;;;;;;;5032269;28;20493;-70
2022/10/01 10:40:26;;;;;;;7.32;2.20;;;;;;;;;;5047938;28;20406;-70
2022/10/01 10:42:54;;;;;;;3.25;2.40;;;;;;;;;;5032325;28;20030;-70
2022/10/01 10:45:22;;;;;;;13.02;5.18;;;;;;;;;;5032038;28;20025;-70
2022/10/01 10:47:52;;;;;;;8.63;3.90;;;;;;;;;;5032147;28;20083;-70
2022/10/01 10:50:28;;;;;;;22.02;11.15;;;;;;;;;;5032451;28;20029;-70
2022/10/01 10:52:56;;;;;;;18.92;10.07;;;;;;;;;;5032309;28;20028;-71
2022/10/01 10:55:29;;;;;;;11.40;6.85;;;;;;;;;;5032098;28;20475;-70
2022/10/01 10:57:55;;;;;;;7.88;2.45;;;;;;;;;;5031685;28;20379;-70
2022/10/01 11:00:23;;;;;;;21.38;9.30;;;;;;;;;;5031957;28;20056;-70
2022/10/01 11:03:01;;;;;;;6.30;3.50;;;;;;;;;;5032160;28;20021;-70
2022/10/01 11:05:30;;;;;;;5.57;2.15;;;;;;;;;;5031978;28;20367;-73
2022/10/01 11:08:02;;;;;;;8.13;3.53;;;;;;;;;;5031797;28;20489;-73
2022/10/01 11:10:34;;;;;;;5.35;2.67;;;;;;;;;;5032005;28;20032;-73
2022/10/01 11:13:00;;;;;;;6.97;3.38;;;;;;;;;;5031412;28;20528;-72
2022/10/01 11:15:29;;;;;;;11.95;7.13;;;;;;;;;;5032229;28;20033;-72
2022/10/01 11:18:10;;;;;;;5.28;2.78;;;;;;;;;;5031747;28;20028;-73
2022/10/01 11:20:48;;;;;;;4.60;2.72;;;;;;;;;;5031854;28;20048;-73
2022/10/01 11:23:26;;;;;;;5.18;2.83;;;;;;;;;;5031748;28;20036;-72
2022/10/01 11:26:09;;;;;;;5.05;3.28;;;;;;;;;;5031621;28;20482;-72
2022/10/01 11:28:39;;;;;;;8.35;3.90;;;;;;;;;;5046828;28;20034;-72
2022/10/01 11:31:05;;;;;;;5.18;3.70;;;;;;;;;;5032012;28;20032;-73
2022/10/01 11:33:39;;;;;;;5.88;3.33;;;;;;;;;;5031746;28;20028;-72
2022/10/01 11:36:09;;;;;;;8.13;2.95;;;;;;;;;;5031678;28;20036;-73
2022/10/01 11:38:59;;;;;;;4.25;2.97;;;;;;;;;;5031610;28;20440;-72
2022/10/01 11:41:37;;;;;;;6.63;3.58;;;;;;;;;;5028410;28;20486;-73
2022/10/01 11:44:04;;;;;;;11.18;3.50;;;;;;;;;;5046798;28;20037;-73
2022/10/01 11:46:42;;;;;;;7.30;2.92;;;;;;;;;;5031638;28;20036;-72
2022/10/01 11:49:09;;;;;;;7.97;2.90;;;;;;;;;;5031420;28;20029;-73
2022/10/01 11:51:41;;;;;;;4.35;2.13;;;;;;;;;;5032016;28;20014;-72
2022/10/01 11:54:11;;;;;;;6.53;2.20;;;;;;;;;;5031842;28;20029;-72
2022/10/01 11:59:48;;;;;;;6.43;2.97;;;;;;;;;;5031433;28;20044;-73
2022/10/01 12:02:25;;;;;;;3.25;2.45;;;;;;;;;;5031541;28;20508;-73
2022/10/01 12:05:14;;;;;;;5.20;2.40;;;;;;;;;;5032400;28;20023;-72
2022/10/01 12:07:42;;;;;;;3.78;1.90;;;;;;;;;;5035297;28;20032;-73
2022/10/01 12:10:20;;;;;;;4.18;1.98;;;;;;;;;;5034555;28;20030;-73
2022/10/01 12:12:51;;;;;;;4.95;2.15;;;;;;;;;;5034864;28;20045;-73
2022/10/01 12:15:23;;;;;;;4.60;2.10;;;;;;;;;;5035284;28;20025;-73
2022/10/01 12:17:52;;;;;;;4.05;2.30;;;;;;;;;;5034942;28;20033;-73
2022/10/01 12:20:24;;;;;;;3.97;2.10;;;;;;;;;;5034848;28;20029;-73
2022/10/01 12:22:52;;;;;;;6.20;3.35;;;;;;;;;;5034748;28;20052;-71
2022/10/01 12:25:20;;;;;;;6.57;3.63;;;;;;;;;;5034397;28;20021;-70
2022/10/01 12:28:04;;;;;;;8.93;2.90;;;;;;;;;;5034761;28;20459;-70
2022/10/01 12:30:36;;;;;;;6.63;3.30;;;;;;;;;;5034527;28;20344;-70
2022/10/01 12:33:05;;;;;;;22.48;11.45;;;;;;;;;;5034654;28;20040;-70
2022/10/01 12:35:37;;;;;;;6.13;3.50;;;;;;;;;;5034754;28;20393;-70
2022/10/01 12:38:22;;;;;;;12.65;6.68;;;;;;;;;;5034743;28;20029;-70
2022/10/01 12:40:53;;;;;;;5.38;3.20;;;;;;;;;;5034516;28;20036;-70
2022/10/01 12:43:26;;;;;;;8.70;2.63;;;;;;;;;;5034621;28;20034;-70
2022/10/01 12:46:06;;;;;;;7.60;3.35;;;;;;;;;;5034162;28;20025;-70
2022/10/01 12:48:39;;;;;;;6.35;3.63;;;;;;;;;;5034302;28;20021;-70
2022/10/01 12:51:26;;;;;;;11.75;6.00;;;;;;;;;;5034680;28;20021;-71
2022/10/01 12:54:05;;;;;;;16.70;8.73;;;;;;;;;;5029999;28;20053;-70
2022/10/01 12:56:44;;;;;;;16.08;5.35;;;;;;;;;;5034612;28;20028;-70
2022/10/01 12:59:21;;;;;;;11.15;4.68;;;;;;;;;;5033954;28;20041;-70
2022/10/01 13:02:02;;;;;;;8.57;3.53;;;;;;;;;;5034215;28;20029;-70
2022/10/01 13:04:41;;;;;;;25.95;12.55;;;;;;;;;;5033926;28;20445;-70
2022/10/01 13:07:26;;;;;;;22.25;12.27;;;;;;;;;;5034132;28;20029;-70
2022/10/01 13:09:56;;;;;;;16.17;8.10;;;;;;;;;;5034188;28;20244;-72
2022/10/01 13:12:35;;;;;;;17.15;8.50;;;;;;;;;;5033684;28;20041;-72
2022/10/01 13:15:03;;;;;;;13.98;6.80;;;;;;;;;;5034221;28;20030;-72
2022/10/01 13:17:36;;;;;;;7.28;3.70;;;;;;;;;;5032602;28;20024;-73
2022/10/01 13:20:02;;;;;;;5.20;3.28;;;;;;;;;;5049060;28;20398;-72
2022/10/01 13:22:44;;;;;;;15.60;8.35;;;;;;;;;;5033276;28;20026;-72
2022/10/01 13:25:19;;;;;;;8.68;3.88;;;;;;;;;;5033811;28;20099;-72
2022/10/01 13:27:46;;;;;;;16.50;7.43;;;;;;;;;;5033832;28;20026;-72
2022/10/01 13:30:15;;;;;;;136.40;52.83;;;;;;;;;;5033567;28;20021;-72
2022/10/01 13:32:59;;;;;;;87.05;35.97;;;;;;;;;;5033737;28;20030;-72
2022/10/01 13:35:26;;;;;;;15.20;5.80;;;;;;;;;;5033596;28;20030;-72
2022/10/01 13:37:52;;;;;;;31.38;13.32;;;;;;;;;;5033060;28;20417;-72
2022/10/01 13:40:39;;;;;;;57.08;30.33;;;;;;;;;;5033383;28;20045;-73
2022/10/01 13:43:15;;;;;;;12.93;6.43;;;;;;;;;;5033335;28;20029;-73
2022/10/01 13:45:42;;;;;;;17.63;10.95;;;;;;;;;;5033507;28;20013;-70
2022/10/01 13:48:12;;;;;;;13.15;7.10;;;;;;;;;;5033540;28;20032;-70
2022/10/01 13:50:38;;;;;;;22.35;11.13;;;;;;;;;;5033061;28;20402;-70
2022/10/01 13:53:20;;;;;;;11.50;5.55;;;;;;;;;;5032887;28;20018;-70
2022/10/01 13:55:47;;;;;;;17.63;8.85;;;;;;;;;;5033234;28;20029;-70
2022/10/01 13:58:29;;;;;;;9.95;4.25;;;;;;;;;;5032983;28;20032;-70
2022/10/01 14:00:56;;;;;;;8.90;3.45;;;;;;;;;;5033016;28;20051;-69
2022/10/01 14:03:35;;;;;;;10.98;5.18;;;;;;;;;;5032755;28;20512;-70
2022/10/01 14:06:03;;;;;;;9.18;4.25;;;;;;;;;;5032529;28;20022;-69
2022/10/01 14:08:37;;;;;;;7.57;3.83;;;;;;;;;;5032808;28;20381;-70
2022/10/01 14:16:47;;;;;;;11.00;6.20;;;;;;;;;;5032748;28;20043;-70
2022/10/01 14:19:20;;;;;;;8.27;3.35;;;;;;;;;;5032635;28;20085;-70
2022/10/01 14:21:53;;;;;;;5.45;3.38;;;;;;;;;;5032233;28;20025;-70
2022/10/01 14:24:39;;;;;;;7.43;3.35;;;;;;;;;;5032895;28;20044;-70
2022/10/01 14:27:11;;;;;;;7.95;3.60;;;;;;;;;;5032612;28;20032;-70
2022/10/01 14:29:46;;;;;;;7.75;3.65;;;;;;;;;;5032482;28;20021;-70
2022/10/01 14:32:38;;;;;;;7.70;4.53;;;;;;;;;;5032520;28;20378;-68
2022/10/01 14:35:04;;;;;;;8.98;3.85;;;;;;;;;;5010135;28;20034;-70
2022/10/01 14:37:31;;;;;;;7.70;3.70;;;;;;;;;;5010572;28;20045;-70
2022/10/01 14:40:29;;;;;;;7.47;3.88;;;;;;;;;;5010446;28;20519;-70
2022/10/01 14:42:59;;;;;;;6.00;4.03;;;;;;;;;;4971602;28;20186;-70
2022/10/01 14:45:25;;;;;;;5.90;3.55;;;;;;;;;;4971381;28;20430;-70
2022/10/01 14:48:01;;;;;;;3.72;2.47;;;;;;;;;;4955050;28;20027;-71
2022/10/01 14:50:29;;;;;;;7.43;3.10;;;;;;;;;;4970738;28;20035;-70
2022/10/01 14:52:57;;;;;;;7.05;2.80;;;;;;;;;;4971347;28;20059;-71
2022/10/01 14:55:24;;;;;;;5.05;3.00;;;;;;;;;;4971163;28;20412;-70
2022/10/01 14:57:51;;;;;;;7.97;2.70;;;;;;;;;;4971114;28;20023;-70
2022/10/01 15:00:25;;;;;;;4.25;2.65;;;;;;;;;;4971228;28;20061;-70
2022/10/01 15:03:01;;;;;;;10.70;4.55;;;;;;;;;;4971378;28;20043;-70
2022/10/01 15:05:30;;;;;;;8.65;2.65;;;;;;;;;;4970715;28;20051;-71